sensor_id;sensor_type;location;lat;lon;timestamp;temperature;humidity
43520;DHT22;46848;51.980;5.918;2023-03-01T00:02:00;4.50;54.80
43520;DHT22;46848;51.980;5.918;2023-03-01T00:04:26;4.50;54.20
43520;DHT22;46848;51.980;5.918;2023-03-01T00:06:53;4.50;54.30
43520;DHT22;46848;51.980;5.918;2023-03-01T00:09:18;4.50;54.40
43520;DHT22;46848;51.980;5.918;2023-03-01T00:11:44;4.50;54.50
43520;DHT22;46848;51.980;5.918;2023-03-01T00:14:10;4.50;54.50
43520;DHT22;46848;51.980;5.918;2023-03-01T00:16:39;4.40;55.20
43520;DHT22;46848;51.980;5.918;2023-03-01T00:19:06;4.40;54.70
43520;DHT22;46848;51.980;5.918;2023-03-01T00:21:32;4.40;54.80
43520;DHT22;46848;51.980;5.918;2023-03-01T00:24:01;4.40;54.70
43520;DHT22;46848;51.980;5.918;2023-03-01T00:26:27;4.40;54.80
43520;DHT22;46848;51.980;5.918;2023-03-01T00:28:54;4.40;54.90
43520;DHT22;46848;51.980;5.918;2023-03-01T00:31:24;4.40;54.90
43520;DHT22;46848;51.980;5.918;2023-03-01T00:33:56;4.40;54.90
43520;DHT22;46848;51.980;5.918;2023-03-01T00:36:24;4.40;55.10
43520;DHT22;46848;51.980;5.918;2023-03-01T00:38:50;4.40;55.10
43520;DHT22;46848;51.980;5.918;2023-03-01T00:41:18;4.40;55.00
43520;DHT22;46848;51.980;5.918;2023-03-01T00:43:44;4.40;55.00
43520;DHT22;46848;51.980;5.918;2023-03-01T00:46:15;4.40;55.10
43520;DHT22;46848;51.980;5.918;2023-03-01T00:48:41;4.40;55.20
43520;DHT22;46848;51.980;5.918;2023-03-01T00:51:17;4.40;55.30
43520;DHT22;46848;51.980;5.918;2023-03-01T00:54:05;4.30;55.20
43520;DHT22;46848;51.980;5.918;2023-03-01T00:56:31;4.20;55.40
43520;DHT22;46848;51.980;5.918;2023-03-01T00:58:57;4.20;55.60
43520;DHT22;46848;51.980;5.918;2023-03-01T01:01:25;4.20;55.70
43520;DHT22;46848;51.980;5.918;2023-03-01T01:04:05;4.20;55.80
43520;DHT22;46848;51.980;5.918;2023-03-01T01:06:34;4.10;55.80
43520;DHT22;46848;51.980;5.918;2023-03-01T01:09:01;4.10;55.90
43520;DHT22;46848;51.980;5.918;2023-03-01T01:11:28;4.10;55.90
43520;DHT22;46848;51.980;5.918;2023-03-01T01:13:55;4.10;56.00
43520;DHT22;46848;51.980;5.918;2023-03-01T01:16:22;4.10;56.50
43520;DHT22;46848;51.980;5.918;2023-03-01T01:18:49;4.10;56.00
43520;DHT22;46848;51.980;5.918;2023-03-01T01:21:18;4.00;56.20
43520;DHT22;46848;51.980;5.918;2023-03-01T01:23:45;4.00;56.30
43520;DHT22;46848;51.980;5.918;2023-03-01T01:26:13;3.90;56.30
43520;DHT22;46848;51.980;5.918;2023-03-01T01:28:39;3.90;56.50
43520;DHT22;46848;51.980;5.918;2023-03-01T01:31:06;3.90;56.50
43520;DHT22;46848;51.980;5.918;2023-03-01T01:33:32;3.90;56.50
43520;DHT22;46848;51.980;5.918;2023-03-01T01:35:57;3.90;56.60
43520;DHT22;46848;51.980;5.918;2023-03-01T01:38:23;3.90;56.60
43520;DHT22;46848;51.980;5.918;2023-03-01T01:40:50;3.80;56.60
43520;DHT22;46848;51.980;5.918;2023-03-01T01:43:24;3.80;56.50
43520;DHT22;46848;51.980;5.918;2023-03-01T01:45:50;3.70;56.70
43520;DHT22;46848;51.980;5.918;2023-03-01T01:48:20;3.70;56.80
43520;DHT22;46848;51.980;5.918;2023-03-01T01:50:55;3.60;56.90
43520;DHT22;46848;51.980;5.918;2023-03-01T01:53:22;3.50;57.00
43520;DHT22;46848;51.980;5.918;2023-03-01T01:55:53;3.50;57.20
43520;DHT22;46848;51.980;5.918;2023-03-01T01:58:22;3.50;57.30
43520;DHT22;46848;51.980;5.918;2023-03-01T02:00:49;3.40;57.40
43520;DHT22;46848;51.980;5.918;2023-03-01T02:03:20;3.30;57.60
43520;DHT22;46848;51.980;5.918;2023-03-01T02:06:18;3.30;57.80
43520;DHT22;46848;51.980;5.918;2023-03-01T02:08:46;3.20;58.00
43520;DHT22;46848;51.980;5.918;2023-03-01T02:11:13;3.10;58.00
43520;DHT22;46848;51.980;5.918;2023-03-01T02:13:42;3.10;58.20
43520;DHT22;46848;51.980;5.918;2023-03-01T02:16:10;3.10;58.30
43520;DHT22;46848;51.980;5.918;2023-03-01T02:18:37;3.10;58.40
43520;DHT22;46848;51.980;5.918;2023-03-01T02:23:37;3.00;58.40
43520;DHT22;46848;51.980;5.918;2023-03-01T02:26:11;3.00;58.50
43520;DHT22;46848;51.980;5.918;2023-03-01T02:28:41;2.90;58.70
43520;DHT22;46848;51.980;5.918;2023-03-01T02:31:09;2.90;58.80
43520;DHT22;46848;51.980;5.918;2023-03-01T02:33:54;2.90;58.80
43520;DHT22;46848;51.980;5.918;2023-03-01T02:36:31;2.90;59.10
43520;DHT22;46848;51.980;5.918;2023-03-01T02:39:02;2.80;59.10
43520;DHT22;46848;51.980;5.918;2023-03-01T02:41:33;2.80;59.10
43520;DHT22;46848;51.980;5.918;2023-03-01T02:44:01;2.90;59.10
43520;DHT22;46848;51.980;5.918;2023-03-01T02:46:26;2.90;59.10
43520;DHT22;46848;51.980;5.918;2023-03-01T02:48:54;2.80;59.20
43520;DHT22;46848;51.980;5.918;2023-03-01T02:56:25;2.80;59.30
43520;DHT22;46848;51.980;5.918;2023-03-01T02:58:51;2.80;59.30
43520;DHT22;46848;51.980;5.918;2023-03-01T03:01:18;2.90;59.30
43520;DHT22;46848;51.980;5.918;2023-03-01T03:03:44;2.90;59.30
43520;DHT22;46848;51.980;5.918;2023-03-01T03:06:10;2.80;59.30
43520;DHT22;46848;51.980;5.918;2023-03-01T03:08:36;2.80;59.30
43520;DHT22;46848;51.980;5.918;2023-03-01T03:11:01;2.80;59.40
43520;DHT22;46848;51.980;5.918;2023-03-01T03:13:27;2.90;59.50
43520;DHT22;46848;51.980;5.918;2023-03-01T03:15:55;2.80;59.50
43520;DHT22;46848;51.980;5.918;2023-03-01T03:18:21;2.80;59.50
43520;DHT22;46848;51.980;5.918;2023-03-01T03:20:48;2.70;59.60
43520;DHT22;46848;51.980;5.918;2023-03-01T03:23:19;2.80;59.60
43520;DHT22;46848;51.980;5.918;2023-03-01T03:25:45;2.80;59.50
43520;DHT22;46848;51.980;5.918;2023-03-01T03:28:12;2.80;59.50
43520;DHT22;46848;51.980;5.918;2023-03-01T03:30:39;2.90;59.40
43520;DHT22;46848;51.980;5.918;2023-03-01T03:33:06;2.80;59.40
43520;DHT22;46848;51.980;5.918;2023-03-01T03:35:38;2.80;59.50
43520;DHT22;46848;51.980;5.918;2023-03-01T03:38:06;2.80;59.60
43520;DHT22;46848;51.980;5.918;2023-03-01T03:40:43;2.80;59.70
43520;DHT22;46848;51.980;5.918;2023-03-01T03:43:15;2.80;59.70
43520;DHT22;46848;51.980;5.918;2023-03-01T03:45:43;2.80;59.70
43520;DHT22;46848;51.980;5.918;2023-03-01T03:48:09;2.80;59.70
43520;DHT22;46848;51.980;5.918;2023-03-01T03:50:36;2.80;59.70
43520;DHT22;46848;51.980;5.918;2023-03-01T03:53:03;2.80;59.70
43520;DHT22;46848;51.980;5.918;2023-03-01T03:55:29;2.80;59.80
43520;DHT22;46848;51.980;5.918;2023-03-01T03:57:58;2.90;59.90
43520;DHT22;46848;51.980;5.918;2023-03-01T04:00:27;2.90;59.90
43520;DHT22;46848;51.980;5.918;2023-03-01T04:02:53;2.90;59.80
43520;DHT22;46848;51.980;5.918;2023-03-01T04:05:22;2.90;59.80
43520;DHT22;46848;51.980;5.918;2023-03-01T04:07:48;2.90;59.90
43520;DHT22;46848;51.980;5.918;2023-03-01T04:10:16;2.90;59.90
43520;DHT22;46848;51.980;5.918;2023-03-01T04:12:42;2.90;59.90
43520;DHT22;46848;51.980;5.918;2023-03-01T04:15:10;2.90;59.90
43520;DHT22;46848;51.980;5.918;2023-03-01T04:17:43;3.00;59.90
43520;DHT22;46848;51.980;5.918;2023-03-01T04:20:14;2.90;59.90
43520;DHT22;46848;51.980;5.918;2023-03-01T04:22:43;2.90;59.90
43520;DHT22;46848;51.980;5.918;2023-03-01T04:25:12;2.90;60.00
43520;DHT22;46848;51.980;5.918;2023-03-01T04:27:40;2.90;60.10
43520;DHT22;46848;51.980;5.918;2023-03-01T04:30:06;2.90;60.10
43520;DHT22;46848;51.980;5.918;2023-03-01T04:32:34;2.90;60.00
43520;DHT22;46848;51.980;5.918;2023-03-01T04:35:00;2.90;60.00
43520;DHT22;46848;51.980;5.918;2023-03-01T04:37:26;2.90;60.00
43520;DHT22;46848;51.980;5.918;2023-03-01T04:39:51;3.00;60.10
43520;DHT22;46848;51.980;5.918;2023-03-01T04:42:18;2.90;60.10
43520;DHT22;46848;51.980;5.918;2023-03-01T04:44:44;2.90;60.20
43520;DHT22;46848;51.980;5.918;2023-03-01T04:47:10;2.90;60.20
43520;DHT22;46848;51.980;5.918;2023-03-01T04:49:36;2.90;60.30
43520;DHT22;46848;51.980;5.918;2023-03-01T04:52:02;2.90;60.20
43520;DHT22;46848;51.980;5.918;2023-03-01T04:54:28;2.90;60.20
43520;DHT22;46848;51.980;5.918;2023-03-01T04:56:54;2.90;60.20
43520;DHT22;46848;51.980;5.918;2023-03-01T04:59:20;2.90;60.20
43520;DHT22;46848;51.980;5.918;2023-03-01T05:01:52;2.90;60.20
43520;DHT22;46848;51.980;5.918;2023-03-01T05:04:32;2.90;60.20
43520;DHT22;46848;51.980;5.918;2023-03-01T05:06:57;2.90;60.20
43520;DHT22;46848;51.980;5.918;2023-03-01T05:09:24;3.00;60.20
43520;DHT22;46848;51.980;5.918;2023-03-01T05:11:49;2.90;60.20
43520;DHT22;46848;51.980;5.918;2023-03-01T05:14:16;2.90;60.20
43520;DHT22;46848;51.980;5.918;2023-03-01T05:16:42;2.90;60.10
43520;DHT22;46848;51.980;5.918;2023-03-01T05:19:08;3.00;60.20
43520;DHT22;46848;51.980;5.918;2023-03-01T05:21:48;2.90;60.10
43520;DHT22;46848;51.980;5.918;2023-03-01T05:24:34;2.90;60.20
43520;DHT22;46848;51.980;5.918;2023-03-01T05:27:01;2.90;60.30
43520;DHT22;46848;51.980;5.918;2023-03-01T05:29:29;2.80;60.30
43520;DHT22;46848;51.980;5.918;2023-03-01T05:31:57;2.80;60.40
43520;DHT22;46848;51.980;5.918;2023-03-01T05:34:29;2.80;60.50
43520;DHT22;46848;51.980;5.918;2023-03-01T05:36:55;2.80;60.50
43520;DHT22;46848;51.980;5.918;2023-03-01T05:39:22;2.70;60.50
43520;DHT22;46848;51.980;5.918;2023-03-01T05:41:56;2.70;60.60
43520;DHT22;46848;51.980;5.918;2023-03-01T05:44:23;2.70;60.80
43520;DHT22;46848;51.980;5.918;2023-03-01T05:46:49;2.70;60.80
43520;DHT22;46848;51.980;5.918;2023-03-01T05:49:15;2.70;60.80
43520;DHT22;46848;51.980;5.918;2023-03-01T05:51:42;2.70;60.90
43520;DHT22;46848;51.980;5.918;2023-03-01T05:54:09;2.70;60.90
43520;DHT22;46848;51.980;5.918;2023-03-01T05:56:36;2.70;60.90
43520;DHT22;46848;51.980;5.918;2023-03-01T05:59:03;2.70;60.90
43520;DHT22;46848;51.980;5.918;2023-03-01T06:01:30;2.70;60.80
43520;DHT22;46848;51.980;5.918;2023-03-01T06:03:56;2.70;60.80
43520;DHT22;46848;51.980;5.918;2023-03-01T06:06:22;2.70;60.80
43520;DHT22;46848;51.980;5.918;2023-03-01T06:08:48;2.70;60.80
43520;DHT22;46848;51.980;5.918;2023-03-01T06:11:13;2.70;60.80
43520;DHT22;46848;51.980;5.918;2023-03-01T06:13:40;2.70;60.90
43520;DHT22;46848;51.980;5.918;2023-03-01T06:16:07;2.60;61.00
43520;DHT22;46848;51.980;5.918;2023-03-01T06:18:35;2.60;61.10
43520;DHT22;46848;51.980;5.918;2023-03-01T06:21:00;2.60;61.10
43520;DHT22;46848;51.980;5.918;2023-03-01T06:23:26;2.60;61.20
43520;DHT22;46848;51.980;5.918;2023-03-01T06:25:52;2.50;61.30
43520;DHT22;46848;51.980;5.918;2023-03-01T06:28:18;2.50;61.30
43520;DHT22;46848;51.980;5.918;2023-03-01T06:30:44;2.50;61.40
43520;DHT22;46848;51.980;5.918;2023-03-01T06:33:09;2.50;61.30
43520;DHT22;46848;51.980;5.918;2023-03-01T06:35:35;2.60;61.30
43520;DHT22;46848;51.980;5.918;2023-03-01T06:38:02;2.60;61.30
43520;DHT22;46848;51.980;5.918;2023-03-01T06:40:29;2.60;61.40
43520;DHT22;46848;51.980;5.918;2023-03-01T06:42:56;2.60;61.30
43520;DHT22;46848;51.980;5.918;2023-03-01T06:45:23;2.60;61.40
43520;DHT22;46848;51.980;5.918;2023-03-01T06:47:49;2.60;61.50
43520;DHT22;46848;51.980;5.918;2023-03-01T06:50:15;2.60;61.50
43520;DHT22;46848;51.980;5.918;2023-03-01T06:52:41;2.60;61.70
43520;DHT22;46848;51.980;5.918;2023-03-01T06:55:09;2.50;61.60
43520;DHT22;46848;51.980;5.918;2023-03-01T06:57:35;2.60;62.00
43520;DHT22;46848;51.980;5.918;2023-03-01T07:00:00;2.60;61.90
43520;DHT22;46848;51.980;5.918;2023-03-01T07:02:26;2.50;62.00
43520;DHT22;46848;51.980;5.918;2023-03-01T07:04:54;2.50;62.00
43520;DHT22;46848;51.980;5.918;2023-03-01T07:07:20;2.60;62.00
43520;DHT22;46848;51.980;5.918;2023-03-01T07:09:48;2.70;62.10
43520;DHT22;46848;51.980;5.918;2023-03-01T07:12:14;2.80;62.00
43520;DHT22;46848;51.980;5.918;2023-03-01T07:14:39;2.90;62.40
43520;DHT22;46848;51.980;5.918;2023-03-01T07:17:06;3.00;61.70
43520;DHT22;46848;51.980;5.918;2023-03-01T07:19:31;3.10;61.60
43520;DHT22;46848;51.980;5.918;2023-03-01T07:22:09;3.20;61.50
43520;DHT22;46848;51.980;5.918;2023-03-01T07:24:35;3.40;61.50
43520;DHT22;46848;51.980;5.918;2023-03-01T07:27:01;4.00;61.30
43520;DHT22;46848;51.980;5.918;2023-03-01T07:29:26;4.50;60.60
43520;DHT22;46848;51.980;5.918;2023-03-01T07:31:54;5.10;59.70
43520;DHT22;46848;51.980;5.918;2023-03-01T07:34:19;5.70;58.70
43520;DHT22;46848;51.980;5.918;2023-03-01T07:36:45;6.30;57.90
43520;DHT22;46848;51.980;5.918;2023-03-01T07:39:11;6.70;56.90
43520;DHT22;46848;51.980;5.918;2023-03-01T07:41:37;7.10;55.80
43520;DHT22;46848;51.980;5.918;2023-03-01T07:44:03;7.40;55.10
43520;DHT22;46848;51.980;5.918;2023-03-01T07:46:30;7.60;54.70
43520;DHT22;46848;51.980;5.918;2023-03-01T07:48:56;7.80;53.60
43520;DHT22;46848;51.980;5.918;2023-03-01T07:51:23;8.00;53.30
43520;DHT22;46848;51.980;5.918;2023-03-01T07:53:48;8.30;52.50
43520;DHT22;46848;51.980;5.918;2023-03-01T07:56:15;8.50;51.10
43520;DHT22;46848;51.980;5.918;2023-03-01T07:58:46;8.70;50.40
43520;DHT22;46848;51.980;5.918;2023-03-01T08:01:15;8.90;50.50
43520;DHT22;46848;51.980;5.918;2023-03-01T08:03:46;9.20;50.30
43520;DHT22;46848;51.980;5.918;2023-03-01T08:06:38;9.50;50.00
43520;DHT22;46848;51.980;5.918;2023-03-01T08:09:04;9.90;49.90
43520;DHT22;46848;51.980;5.918;2023-03-01T08:11:31;10.20;50.80
43520;DHT22;46848;51.980;5.918;2023-03-01T08:13:56;10.50;49.50
43520;DHT22;46848;51.980;5.918;2023-03-01T08:16:23;10.80;48.30
43520;DHT22;46848;51.980;5.918;2023-03-01T08:18:50;11.10;49.40
43520;DHT22;46848;51.980;5.918;2023-03-01T08:21:17;11.30;50.20
43520;DHT22;46848;51.980;5.918;2023-03-01T08:23:43;11.50;49.20
43520;DHT22;46848;51.980;5.918;2023-03-01T08:28:38;12.00;50.60
43520;DHT22;46848;51.980;5.918;2023-03-01T08:31:23;12.30;50.70
43520;DHT22;46848;51.980;5.918;2023-03-01T08:33:52;12.60;50.50
43520;DHT22;46848;51.980;5.918;2023-03-01T08:36:21;12.90;51.70
43520;DHT22;46848;51.980;5.918;2023-03-01T08:38:51;13.20;51.70
43520;DHT22;46848;51.980;5.918;2023-03-01T08:41:17;13.40;51.90
43520;DHT22;46848;51.980;5.918;2023-03-01T08:43:43;13.70;51.20
43520;DHT22;46848;51.980;5.918;2023-03-01T08:46:08;13.70;48.00
43520;DHT22;46848;51.980;5.918;2023-03-01T08:48:34;13.60;50.50
43520;DHT22;46848;51.980;5.918;2023-03-01T08:51:16;13.40;51.30
43520;DHT22;46848;51.980;5.918;2023-03-01T08:53:42;13.40;50.50
43520;DHT22;46848;51.980;5.918;2023-03-01T08:56:08;13.50;53.90
43520;DHT22;46848;51.980;5.918;2023-03-01T08:58:34;13.50;51.20
43520;DHT22;46848;51.980;5.918;2023-03-01T09:01:00;13.50;51.90
43520;DHT22;46848;51.980;5.918;2023-03-01T09:03:31;13.50;55.00
43520;DHT22;46848;51.980;5.918;2023-03-01T09:06:01;13.50;54.00
43520;DHT22;46848;51.980;5.918;2023-03-01T09:08:28;13.70;57.20
43520;DHT22;46848;51.980;5.918;2023-03-01T09:10:55;14.10;56.10
43520;DHT22;46848;51.980;5.918;2023-03-01T09:13:22;14.50;56.70
43520;DHT22;46848;51.980;5.918;2023-03-01T09:15:51;14.70;49.70
43520;DHT22;46848;51.980;5.918;2023-03-01T09:18:20;14.60;52.70
43520;DHT22;46848;51.980;5.918;2023-03-01T09:21:05;14.50;52.30
43520;DHT22;46848;51.980;5.918;2023-03-01T09:23:35;14.50;55.10
43520;DHT22;46848;51.980;5.918;2023-03-01T09:26:02;14.60;54.50
43520;DHT22;46848;51.980;5.918;2023-03-01T09:28:28;14.80;54.10
43520;DHT22;46848;51.980;5.918;2023-03-01T09:30:58;14.80;52.40
43520;DHT22;46848;51.980;5.918;2023-03-01T09:33:28;14.50;49.90
43520;DHT22;46848;51.980;5.918;2023-03-01T09:36:06;14.20;51.30
43520;DHT22;46848;51.980;5.918;2023-03-01T09:38:33;14.30;53.40
43520;DHT22;46848;51.980;5.918;2023-03-01T09:41:00;14.70;58.30
43520;DHT22;46848;51.980;5.918;2023-03-01T09:43:46;15.00;54.20
43520;DHT22;46848;51.980;5.918;2023-03-01T09:46:14;15.10;54.70
43520;DHT22;46848;51.980;5.918;2023-03-01T09:49:03;15.20;55.80
43520;DHT22;46848;51.980;5.918;2023-03-01T09:51:35;15.00;53.10
43520;DHT22;46848;51.980;5.918;2023-03-01T09:54:04;14.80;53.70
43520;DHT22;46848;51.980;5.918;2023-03-01T10:02:46;15.00;57.20
43520;DHT22;46848;51.980;5.918;2023-03-01T10:10:49;15.30;56.40
43520;DHT22;46848;51.980;5.918;2023-03-01T10:16:16;15.30;53.60
43520;DHT22;46848;51.980;5.918;2023-03-01T10:18:55;15.20;52.20
43520;DHT22;46848;51.980;5.918;2023-03-01T10:21:21;15.20;55.50
43520;DHT22;46848;51.980;5.918;2023-03-01T10:23:52;15.00;51.40
43520;DHT22;46848;51.980;5.918;2023-03-01T10:26:40;14.60;49.70
43520;DHT22;46848;51.980;5.918;2023-03-01T10:29:11;14.40;50.70
43520;DHT22;46848;51.980;5.918;2023-03-01T10:31:46;14.10;48.70
43520;DHT22;46848;51.980;5.918;2023-03-01T10:34:30;13.90;50.10
43520;DHT22;46848;51.980;5.918;2023-03-01T10:36:58;13.80;54.30
43520;DHT22;46848;51.980;5.918;2023-03-01T10:39:26;13.90;56.00
43520;DHT22;46848;51.980;5.918;2023-03-01T10:41:57;14.00;58.20
43520;DHT22;46848;51.980;5.918;2023-03-01T10:44:44;14.30;57.80
43520;DHT22;46848;51.980;5.918;2023-03-01T10:47:30;14.50;54.70
43520;DHT22;46848;51.980;5.918;2023-03-01T10:50:18;14.50;49.60
43520;DHT22;46848;51.980;5.918;2023-03-01T10:53:04;14.40;52.60
43520;DHT22;46848;51.980;5.918;2023-03-01T10:55:36;14.50;54.60
43520;DHT22;46848;51.980;5.918;2023-03-01T10:58:20;14.50;47.10
43520;DHT22;46848;51.980;5.918;2023-03-01T11:00:55;14.30;45.60
43520;DHT22;46848;51.980;5.918;2023-03-01T11:03:27;14.20;50.50
43520;DHT22;46848;51.980;5.918;2023-03-01T11:08:39;14.40;47.70
43520;DHT22;46848;51.980;5.918;2023-03-01T11:11:17;14.20;45.40
43520;DHT22;46848;51.980;5.918;2023-03-01T11:14:07;14.10;49.30
43520;DHT22;46848;51.980;5.918;2023-03-01T11:16:41;14.10;45.00
43520;DHT22;46848;51.980;5.918;2023-03-01T11:24:14;14.00;47.70
43520;DHT22;46848;51.980;5.918;2023-03-01T11:26:44;13.90;46.60
43520;DHT22;46848;51.980;5.918;2023-03-01T11:29:38;13.90;49.20
43520;DHT22;46848;51.980;5.918;2023-03-01T11:32:08;13.90;45.30
43520;DHT22;46848;51.980;5.918;2023-03-01T11:34:39;13.70;44.70
43520;DHT22;46848;51.980;5.918;2023-03-01T11:37:19;13.50;45.70
43520;DHT22;46848;51.980;5.918;2023-03-01T11:40:03;13.30;41.80
43520;DHT22;46848;51.980;5.918;2023-03-01T11:45:11;13.10;43.50
43520;DHT22;46848;51.980;5.918;2023-03-01T11:50:41;13.00;42.00
43520;DHT22;46848;51.980;5.918;2023-03-01T11:53:30;12.90;45.20
43520;DHT22;46848;51.980;5.918;2023-03-01T11:59:23;13.20;44.40
43520;DHT22;46848;51.980;5.918;2023-03-01T12:04:56;12.90;43.20
43520;DHT22;46848;51.980;5.918;2023-03-01T12:10:20;12.90;41.80
43520;DHT22;46848;51.980;5.918;2023-03-01T12:21:19;12.90;43.80
43520;DHT22;46848;51.980;5.918;2023-03-01T12:29:57;12.60;41.00
43520;DHT22;46848;51.980;5.918;2023-03-01T12:33:12;12.60;39.40
43520;DHT22;46848;51.980;5.918;2023-03-01T12:36:14;12.60;39.80
43520;DHT22;46848;51.980;5.918;2023-03-01T12:41:40;12.70;39.60
43520;DHT22;46848;51.980;5.918;2023-03-01T12:44:27;12.60;39.10
43520;DHT22;46848;51.980;5.918;2023-03-01T12:50:00;12.60;39.70
43520;DHT22;46848;51.980;5.918;2023-03-01T12:52:43;12.60;40.50
43520;DHT22;46848;51.980;5.918;2023-03-01T13:03:21;12.70;38.00
43520;DHT22;46848;51.980;5.918;2023-03-01T13:06:04;12.60;37.40
43520;DHT22;46848;51.980;5.918;2023-03-01T13:08:48;12.60;38.20
43520;DHT22;46848;51.980;5.918;2023-03-01T13:11:20;12.60;38.00
43520;DHT22;46848;51.980;5.918;2023-03-01T13:13:47;12.60;38.70
43520;DHT22;46848;51.980;5.918;2023-03-01T13:19:28;12.50;38.00
43520;DHT22;46848;51.980;5.918;2023-03-01T13:21:58;12.50;37.50
43520;DHT22;46848;51.980;5.918;2023-03-01T13:24:48;12.50;38.10
43520;DHT22;46848;51.980;5.918;2023-03-01T13:27:38;12.60;39.10
43520;DHT22;46848;51.980;5.918;2023-03-01T13:30:11;12.70;39.40
43520;DHT22;46848;51.980;5.918;2023-03-01T13:32:50;12.80;39.60
43520;DHT22;46848;51.980;5.918;2023-03-01T13:35:40;12.90;40.10
43520;DHT22;46848;51.980;5.918;2023-03-01T13:38:45;13.00;39.80
43520;DHT22;46848;51.980;5.918;2023-03-01T13:41:47;13.20;38.50
43520;DHT22;46848;51.980;5.918;2023-03-01T13:44:02;13.10;38.70
43520;DHT22;46848;51.980;5.918;2023-03-01T13:46:37;13.10;38.40
43520;DHT22;46848;51.980;5.918;2023-03-01T13:49:03;13.00;37.60
43520;DHT22;46848;51.980;5.918;2023-03-01T13:51:32;13.10;37.50
43520;DHT22;46848;51.980;5.918;2023-03-01T13:54:16;12.90;37.40
43520;DHT22;46848;51.980;5.918;2023-03-01T13:56:43;13.00;37.60
43520;DHT22;46848;51.980;5.918;2023-03-01T13:59:15;12.90;36.40
43520;DHT22;46848;51.980;5.918;2023-03-01T14:01:52;12.80;36.90
43520;DHT22;46848;51.980;5.918;2023-03-01T14:04:29;12.80;35.90
43520;DHT22;46848;51.980;5.918;2023-03-01T14:09:41;12.60;37.00
43520;DHT22;46848;51.980;5.918;2023-03-01T14:15:12;12.70;37.90
43520;DHT22;46848;51.980;5.918;2023-03-01T14:20:40;12.70;38.40
43520;DHT22;46848;51.980;5.918;2023-03-01T14:23:15;12.80;38.90
43520;DHT22;46848;51.980;5.918;2023-03-01T14:25:48;12.90;37.60
43520;DHT22;46848;51.980;5.918;2023-03-01T14:28:21;12.80;38.10
43520;DHT22;46848;51.980;5.918;2023-03-01T14:30:51;12.70;37.00
43520;DHT22;46848;51.980;5.918;2023-03-01T14:33:34;12.60;38.40
43520;DHT22;46848;51.980;5.918;2023-03-01T14:36:10;12.60;37.50
43520;DHT22;46848;51.980;5.918;2023-03-01T14:38:44;12.50;38.50
43520;DHT22;46848;51.980;5.918;2023-03-01T14:41:14;12.50;38.30
43520;DHT22;46848;51.980;5.918;2023-03-01T14:43:49;12.60;38.40
43520;DHT22;46848;51.980;5.918;2023-03-01T14:46:37;12.40;37.30
43520;DHT22;46848;51.980;5.918;2023-03-01T14:49:14;12.30;37.30
43520;DHT22;46848;51.980;5.918;2023-03-01T14:51:43;12.20;37.60
43520;DHT22;46848;51.980;5.918;2023-03-01T14:54:28;12.10;38.20
43520;DHT22;46848;51.980;5.918;2023-03-01T14:56:59;12.00;38.20
43520;DHT22;46848;51.980;5.918;2023-03-01T14:59:25;12.10;38.00
43520;DHT22;46848;51.980;5.918;2023-03-01T15:01:53;12.00;37.90
43520;DHT22;46848;51.980;5.918;2023-03-01T15:04:20;11.90;38.30
43520;DHT22;46848;51.980;5.918;2023-03-01T15:06:51;11.80;36.50
43520;DHT22;46848;51.980;5.918;2023-03-01T15:09:18;11.70;37.20
43520;DHT22;46848;51.980;5.918;2023-03-01T15:11:44;11.70;36.70
43520;DHT22;46848;51.980;5.918;2023-03-01T15:14:49;11.60;35.60
43520;DHT22;46848;51.980;5.918;2023-03-01T15:17:36;11.40;36.70
43520;DHT22;46848;51.980;5.918;2023-03-01T15:20:18;11.40;37.40
43520;DHT22;46848;51.980;5.918;2023-03-01T15:22:47;11.40;37.70
43520;DHT22;46848;51.980;5.918;2023-03-01T15:25:21;11.50;37.80
43520;DHT22;46848;51.980;5.918;2023-03-01T15:27:51;11.40;37.60
43520;DHT22;46848;51.980;5.918;2023-03-01T15:30:31;11.40;37.90
43520;DHT22;46848;51.980;5.918;2023-03-01T15:35:50;11.30;37.90
43520;DHT22;46848;51.980;5.918;2023-03-01T15:38:34;11.30;38.70
43520;DHT22;46848;51.980;5.918;2023-03-01T15:41:32;11.40;39.00
43520;DHT22;46848;51.980;5.918;2023-03-01T15:44:40;11.50;38.90
43520;DHT22;46848;51.980;5.918;2023-03-01T15:47:29;11.50;38.60
43520;DHT22;46848;51.980;5.918;2023-03-01T15:50:11;11.40;38.80
43520;DHT22;46848;51.980;5.918;2023-03-01T15:52:58;11.30;38.80
43520;DHT22;46848;51.980;5.918;2023-03-01T15:55:31;11.40;39.30
43520;DHT22;46848;51.980;5.918;2023-03-01T15:58:14;11.30;39.00
43520;DHT22;46848;51.980;5.918;2023-03-01T16:00:41;11.20;38.60
43520;DHT22;46848;51.980;5.918;2023-03-01T16:03:21;11.10;39.00
43520;DHT22;46848;51.980;5.918;2023-03-01T16:05:50;11.00;39.10
43520;DHT22;46848;51.980;5.918;2023-03-01T16:08:22;11.00;39.40
43520;DHT22;46848;51.980;5.918;2023-03-01T16:10:54;10.80;38.70
43520;DHT22;46848;51.980;5.918;2023-03-01T16:13:20;10.80;38.70
43520;DHT22;46848;51.980;5.918;2023-03-01T16:15:47;10.70;38.80
43520;DHT22;46848;51.980;5.918;2023-03-01T16:18:14;10.60;38.60
43520;DHT22;46848;51.980;5.918;2023-03-01T16:20:40;10.60;39.10
43520;DHT22;46848;51.980;5.918;2023-03-01T16:23:08;10.40;38.00
43520;DHT22;46848;51.980;5.918;2023-03-01T16:25:36;10.30;38.10
43520;DHT22;46848;51.980;5.918;2023-03-01T16:28:08;10.10;37.70
43520;DHT22;46848;51.980;5.918;2023-03-01T16:30:37;10.00;38.70
43520;DHT22;46848;51.980;5.918;2023-03-01T16:33:06;9.90;39.10
43520;DHT22;46848;51.980;5.918;2023-03-01T16:36:12;9.80;39.50
43520;DHT22;46848;51.980;5.918;2023-03-01T16:38:39;9.70;39.20
43520;DHT22;46848;51.980;5.918;2023-03-01T16:41:05;9.60;38.90
43520;DHT22;46848;51.980;5.918;2023-03-01T16:43:36;9.50;39.20
43520;DHT22;46848;51.980;5.918;2023-03-01T16:46:11;9.40;39.60
43520;DHT22;46848;51.980;5.918;2023-03-01T16:48:37;9.40;40.00
43520;DHT22;46848;51.980;5.918;2023-03-01T16:51:02;9.50;39.90
43520;DHT22;46848;51.980;5.918;2023-03-01T16:53:28;9.40;39.90
43520;DHT22;46848;51.980;5.918;2023-03-01T16:55:58;9.50;40.60
43520;DHT22;46848;51.980;5.918;2023-03-01T16:58:24;9.40;40.70
43520;DHT22;46848;51.980;5.918;2023-03-01T17:00:52;9.40;40.90
43520;DHT22;46848;51.980;5.918;2023-03-01T17:03:19;9.40;40.40
43520;DHT22;46848;51.980;5.918;2023-03-01T17:05:45;9.40;40.80
43520;DHT22;46848;51.980;5.918;2023-03-01T17:08:11;9.20;41.00
43520;DHT22;46848;51.980;5.918;2023-03-01T17:10:36;9.20;41.50
43520;DHT22;46848;51.980;5.918;2023-03-01T17:13:02;9.30;41.80
43520;DHT22;46848;51.980;5.918;2023-03-01T17:15:28;9.20;41.90
43520;DHT22;46848;51.980;5.918;2023-03-01T17:17:54;9.20;41.80
43520;DHT22;46848;51.980;5.918;2023-03-01T17:20:20;9.20;42.10
43520;DHT22;46848;51.980;5.918;2023-03-01T17:22:45;9.10;42.40
43520;DHT22;46848;51.980;5.918;2023-03-01T17:25:11;9.10;42.40
43520;DHT22;46848;51.980;5.918;2023-03-01T17:27:38;9.10;42.50
43520;DHT22;46848;51.980;5.918;2023-03-01T17:30:06;8.90;42.70
43520;DHT22;46848;51.980;5.918;2023-03-01T17:32:34;8.90;42.90
43520;DHT22;46848;51.980;5.918;2023-03-01T17:35:01;8.80;43.00